VCBI/CMB METAR and TAF weather

Enter ICAO airport designator
Station Type Date Time Source
VCBI METAR 2019/10/21 02:10 UTC NOAA

VCBI 210210Z 16005KT 4000 SHRA SCT012 SCT016 24/24 Q1011 NOSIG


Station Type Date Time Source
VCBI Decoded METAR 2019/10/21 02:10 UTC NOAA

Katunayake, Sri Lanka (VCBI) 07-10N 079-53E 8M
Oct 20, 2019 - 10:10 PM EDT / 2019.10.21 0210 UTC
Wind: from the SSE (160 degrees) at 6 MPH (5 KT):0
Visibility: 2 mile(s):0
Sky conditions: partly cloudy
Weather: rain showers
Temperature: 75 F (24 C)
Dew Point: 75 F (24 C)
Relative Humidity: 100%
Pressure (altimeter): 29.85 in. Hg (1011 hPa)
ob: VCBI 210210Z 16005KT 4000 SHRA SCT012 SCT016 24/24 Q1011 NOSIG
cycle: 2

Station Type Date Time Source
VCBI TAF 2019/10/20 18:06 UTC NOAA

TAF TAF VCBI 201700Z 2018/2124 VRB05KT 9999 SCT018 TX30/2108Z TN24/2100Z PROB40
TEMPO 2109/2116 6000 -TSRA/SHRA FEW012 SCT016 SCT018CB

Example: see airport list